createdAt,value
2022-10-09T00:01:02.029Z,7.30
2022-10-09T00:02:04.927Z,7.30
2022-10-09T00:03:07.561Z,7.30
2022-10-09T00:04:09.214Z,7.30
2022-10-09T00:05:10.962Z,7.30
2022-10-09T00:06:17.638Z,7.30
2022-10-09T00:07:19.330Z,7.20
2022-10-09T00:08:21.055Z,7.20
2022-10-09T00:09:22.714Z,7.30
2022-10-09T00:10:24.399Z,7.20
2022-10-09T00:11:27.687Z,7.20
2022-10-09T00:12:29.360Z,7.20
2022-10-09T00:13:31.103Z,7.20
2022-10-09T00:14:32.798Z,7.20
2022-10-09T00:15:42.302Z,7.20
2022-10-09T00:16:44.188Z,7.20
2022-10-09T00:17:45.940Z,7.20
2022-10-09T00:18:47.957Z,7.20
2022-10-09T00:19:49.632Z,7.20
2022-10-09T00:20:51.373Z,7.20
2022-10-09T00:21:53.049Z,7.20
2022-10-09T00:22:54.835Z,7.20
2022-10-09T00:23:58.697Z,7.20
2022-10-09T00:25:00.455Z,7.20
2022-10-09T00:26:02.524Z,7.20
2022-10-09T00:27:04.288Z,7.20
2022-10-09T00:28:06.083Z,7.20
2022-10-09T00:29:07.794Z,7.20
2022-10-09T00:30:09.850Z,7.20
2022-10-09T00:31:12.360Z,7.10
2022-10-09T00:32:14.098Z,7.10
2022-10-09T00:33:15.899Z,7.10
2022-10-09T00:34:17.592Z,7.10
2022-10-09T00:35:19.607Z,7.10
2022-10-09T00:36:24.024Z,7.10
2022-10-09T00:37:25.769Z,7.00
2022-10-09T00:38:28.591Z,7.00
2022-10-09T00:39:30.976Z,7.00
2022-10-09T00:40:33.127Z,7.00
2022-10-09T00:41:35.205Z,7.00
2022-10-09T00:42:36.971Z,7.00
2022-10-09T00:43:46.202Z,7.00
2022-10-09T00:44:57.142Z,7.00
2022-10-09T00:45:58.889Z,7.00
2022-10-09T00:47:00.650Z,6.90
2022-10-09T00:48:06.772Z,7.00
2022-10-09T00:49:20.447Z,7.00
2022-10-09T00:50:24.629Z,7.00
2022-10-09T00:51:27.182Z,7.00
2022-10-09T00:52:29.459Z,7.00
2022-10-09T00:53:31.449Z,6.90
2022-10-09T00:54:37.040Z,6.90
2022-10-09T00:55:39.625Z,6.90
2022-10-09T00:56:41.854Z,6.90
2022-10-09T00:57:44.245Z,6.90
2022-10-09T00:58:52.588Z,6.90
2022-10-09T00:59:54.619Z,6.90
2022-10-09T01:00:56.451Z,6.80
2022-10-09T01:01:58.402Z,6.80
2022-10-09T01:03:00.268Z,6.80
2022-10-09T01:04:02.002Z,6.80
2022-10-09T01:05:04.264Z,6.70
2022-10-09T01:06:14.948Z,6.70
2022-10-09T01:07:19.460Z,6.70
2022-10-09T01:08:42.074Z,6.70
2022-10-09T01:10:11.719Z,6.70
2022-10-09T01:11:38.812Z,6.70
2022-10-09T01:12:49.819Z,6.70
2022-10-09T01:14:03.687Z,6.70
2022-10-09T01:15:25.271Z,6.70
2022-10-09T01:16:36.692Z,6.70
2022-10-09T01:17:57.623Z,6.70
2022-10-09T01:19:27.986Z,6.60
2022-10-09T01:20:44.465Z,6.60
2022-10-09T01:22:13.493Z,6.70
2022-10-09T01:23:34.177Z,6.60
2022-10-09T01:24:44.915Z,6.60
2022-10-09T01:26:15.747Z,6.60
2022-10-09T01:27:23.481Z,6.60
2022-10-09T01:28:30.841Z,6.60
2022-10-09T01:29:40.844Z,6.60
2022-10-09T01:30:43.170Z,6.60
2022-10-09T01:31:48.695Z,6.60
2022-10-09T01:32:53.389Z,6.50
2022-10-09T01:33:55.191Z,6.50
2022-10-09T01:34:57.867Z,6.50
2022-10-09T01:36:01.462Z,6.50
2022-10-09T01:37:04.182Z,6.50
2022-10-09T01:38:07.138Z,6.50
2022-10-09T01:39:12.864Z,6.50
2022-10-09T01:40:16.936Z,6.50
2022-10-09T01:41:19.504Z,6.50
2022-10-09T01:42:24.090Z,6.60
2022-10-09T01:43:25.731Z,6.60
2022-10-09T01:44:32.438Z,6.60
2022-10-09T01:45:43.409Z,6.60
2022-10-09T01:46:45.839Z,6.60
2022-10-09T01:47:47.632Z,6.50
2022-10-09T01:49:23.155Z,6.50
2022-10-09T01:50:34.475Z,6.50
2022-10-09T01:52:01.598Z,6.50
2022-10-09T01:53:08.873Z,6.50
2022-10-09T01:54:14.969Z,6.50
2022-10-09T01:55:44.062Z,6.50
2022-10-09T01:56:49.664Z,6.50
2022-10-09T01:58:01.864Z,6.40
2022-10-09T01:59:15.490Z,6.40
2022-10-09T02:00:18.420Z,6.40
2022-10-09T02:01:31.307Z,6.30
2022-10-09T02:02:33.994Z,6.30
2022-10-09T02:03:39.345Z,6.30
2022-10-09T02:04:43.529Z,6.30
2022-10-09T02:05:46.854Z,6.30
2022-10-09T02:06:49.075Z,6.30
2022-10-09T02:07:50.793Z,6.20
2022-10-09T02:08:53.960Z,6.30
2022-10-09T02:09:56.981Z,6.30
2022-10-09T02:11:01.425Z,6.30
2022-10-09T02:12:07.946Z,6.30
2022-10-09T02:13:10.037Z,6.30
2022-10-09T02:14:11.861Z,6.30
2022-10-09T02:15:14.576Z,6.20
2022-10-09T02:16:18.889Z,6.20
2022-10-09T02:17:27.077Z,6.20
2022-10-09T02:18:43.600Z,6.20
2022-10-09T02:19:54.542Z,6.20
2022-10-09T02:21:02.057Z,6.20
2022-10-09T02:22:35.538Z,6.20
2022-10-09T02:23:39.687Z,6.20
2022-10-09T02:24:42.460Z,6.20
2022-10-09T02:25:44.315Z,6.20
2022-10-09T02:26:46.009Z,6.20
2022-10-09T02:27:48.351Z,6.20
2022-10-09T02:28:50.270Z,6.20
2022-10-09T02:29:53.155Z,6.20
2022-10-09T02:31:18.693Z,6.10
2022-10-09T02:32:20.849Z,6.10
2022-10-09T02:33:28.133Z,6.10
2022-10-09T02:34:29.834Z,6.20
2022-10-09T02:35:31.763Z,6.00
2022-10-09T02:36:34.459Z,6.00
2022-10-09T02:37:36.160Z,6.10
2022-10-09T02:38:37.859Z,6.10
2022-10-09T02:39:39.537Z,6.10
2022-10-09T02:40:41.204Z,6.10
2022-10-09T02:41:42.982Z,6.10
2022-10-09T02:42:44.673Z,6.10
2022-10-09T02:43:46.419Z,6.10
2022-10-09T02:44:48.172Z,6.10
2022-10-09T02:45:49.824Z,6.10
2022-10-09T02:46:51.751Z,6.10
2022-10-09T02:47:53.556Z,6.10
2022-10-09T02:48:55.366Z,6.10
2022-10-09T02:49:57.151Z,6.10
2022-10-09T02:51:00.180Z,6.10
2022-10-09T02:52:01.899Z,6.00
2022-10-09T02:53:03.644Z,6.10
2022-10-09T02:54:05.625Z,6.00
2022-10-09T02:55:07.659Z,6.00
2022-10-09T02:56:09.479Z,6.00
2022-10-09T02:57:11.132Z,6.00
2022-10-09T02:58:12.803Z,6.00
2022-10-09T02:59:14.539Z,5.90
2022-10-09T03:00:16.367Z,6.00
2022-10-09T03:01:18.750Z,5.90
2022-10-09T03:02:20.622Z,5.90
2022-10-09T03:03:22.414Z,5.90
2022-10-09T03:04:24.131Z,5.90
2022-10-09T03:05:25.825Z,5.90
2022-10-09T03:06:28.925Z,5.90
2022-10-09T03:07:30.746Z,5.90
2022-10-09T03:08:32.462Z,5.90
2022-10-09T03:09:34.244Z,5.90
2022-10-09T03:10:39.147Z,5.90
2022-10-09T03:11:40.947Z,5.90
2022-10-09T03:12:42.690Z,5.90
2022-10-09T03:13:44.862Z,6.00
2022-10-09T03:14:46.543Z,6.00
2022-10-09T03:15:48.299Z,6.00
2022-10-09T03:16:50.050Z,6.00
2022-10-09T03:17:51.711Z,6.00
2022-10-09T03:18:54.102Z,6.00
2022-10-09T03:19:55.752Z,6.00
2022-10-09T03:20:58.006Z,5.90
2022-10-09T03:21:59.681Z,5.90
2022-10-09T03:23:01.350Z,5.90
2022-10-09T03:24:03.186Z,5.80
2022-10-09T03:25:05.919Z,5.80
2022-10-09T03:26:11.128Z,5.80
2022-10-09T03:27:12.885Z,5.70
2022-10-09T03:28:14.690Z,5.70
2022-10-09T03:29:16.446Z,5.70
2022-10-09T03:30:18.159Z,5.70
2022-10-09T03:31:49.943Z,5.70
2022-10-09T03:32:43.838Z,5.70
2022-10-09T03:33:45.659Z,5.60
2022-10-09T03:34:47.366Z,5.60
2022-10-09T03:35:50.233Z,5.60
2022-10-09T03:36:51.995Z,5.60
2022-10-09T03:37:53.659Z,5.60
2022-10-09T03:38:55.357Z,5.70
2022-10-09T03:39:57.242Z,5.70
2022-10-09T03:41:00.479Z,5.70
2022-10-09T03:42:02.261Z,5.70
2022-10-09T03:43:03.998Z,5.70
2022-10-09T03:44:05.784Z,5.60
2022-10-09T03:45:08.047Z,5.70
2022-10-09T03:46:10.908Z,5.70
2022-10-09T03:47:12.717Z,5.70
2022-10-09T03:48:15.120Z,5.70
2022-10-09T03:49:17.104Z,5.60
2022-10-09T03:50:19.064Z,5.60
2022-10-09T03:51:21.177Z,5.60
2022-10-09T03:52:22.897Z,5.60
2022-10-09T03:53:24.640Z,5.60
2022-10-09T03:54:26.732Z,5.60
2022-10-09T03:55:28.458Z,5.60
2022-10-09T03:56:30.317Z,5.50
2022-10-09T03:57:32.011Z,5.50
2022-10-09T03:58:33.702Z,5.50
2022-10-09T03:59:35.433Z,5.50
2022-10-09T04:00:37.499Z,5.50
2022-10-09T04:01:39.193Z,5.50
2022-10-09T04:02:41.069Z,5.50
2022-10-09T04:03:43.029Z,5.40
2022-10-09T04:04:45.165Z,5.50
2022-10-09T04:05:47.153Z,5.50
2022-10-09T04:06:48.860Z,5.50
2022-10-09T04:07:50.747Z,5.40
2022-10-09T04:08:52.801Z,5.40
2022-10-09T04:09:55.575Z,5.40
2022-10-09T04:10:59.174Z,5.40
2022-10-09T04:12:00.835Z,5.40
2022-10-09T04:13:02.683Z,5.40
2022-10-09T04:14:04.583Z,5.40
2022-10-09T04:15:06.887Z,5.40
2022-10-09T04:16:12.748Z,5.40
2022-10-09T04:17:14.706Z,5.40
2022-10-09T04:18:16.375Z,5.40
2022-10-09T04:19:18.121Z,5.30
2022-10-09T04:20:21.002Z,5.30
2022-10-09T04:21:22.731Z,5.30
2022-10-09T04:22:24.491Z,5.30
2022-10-09T04:23:27.922Z,5.30
2022-10-09T04:24:29.820Z,5.30
2022-10-09T04:25:31.891Z,5.30
2022-10-09T04:26:33.747Z,5.30
2022-10-09T04:27:35.445Z,5.30
2022-10-09T04:28:37.303Z,5.30
2022-10-09T04:29:39.455Z,5.30
2022-10-09T04:30:41.433Z,5.30
2022-10-09T04:31:43.197Z,5.30
2022-10-09T04:32:44.983Z,5.30
2022-10-09T04:33:46.748Z,5.30
2022-10-09T04:34:48.647Z,5.30
2022-10-09T04:35:51.999Z,5.30
2022-10-09T04:36:53.755Z,5.30
2022-10-09T04:37:55.560Z,5.30
2022-10-09T04:38:57.307Z,5.30
2022-10-09T04:39:58.964Z,5.20
2022-10-09T04:41:05.934Z,5.20
2022-10-09T04:42:07.903Z,5.20
2022-10-09T04:43:09.951Z,5.20
2022-10-09T04:44:11.783Z,5.20
2022-10-09T04:45:13.434Z,5.20
2022-10-09T04:46:15.500Z,5.10
2022-10-09T04:47:17.607Z,5.10
2022-10-09T04:48:19.375Z,5.10
2022-10-09T04:49:21.127Z,5.10
2022-10-09T04:50:22.850Z,5.10
2022-10-09T04:51:24.527Z,5.10
2022-10-09T04:52:26.336Z,5.10
2022-10-09T04:53:28.064Z,5.10
2022-10-09T04:54:29.839Z,5.10
2022-10-09T04:55:31.646Z,5.10
2022-10-09T04:56:33.437Z,5.10
2022-10-09T04:57:35.267Z,5.10
2022-10-09T04:58:37.235Z,5.10
2022-10-09T04:59:39.075Z,5.10
2022-10-09T05:00:42.662Z,5.10
2022-10-09T05:01:44.486Z,5.10
2022-10-09T05:02:46.430Z,5.10
2022-10-09T05:03:49.007Z,5.00
2022-10-09T05:04:50.735Z,5.10
2022-10-09T05:05:52.533Z,5.10
2022-10-09T05:06:54.227Z,5.10
2022-10-09T05:07:55.908Z,5.00
2022-10-09T05:08:57.641Z,5.00
2022-10-09T05:09:59.319Z,4.90
2022-10-09T05:11:02.072Z,5.00
2022-10-09T05:12:03.803Z,5.00
2022-10-09T05:13:06.797Z,5.00
2022-10-09T05:14:08.521Z,5.00
2022-10-09T05:15:10.547Z,5.00
2022-10-09T05:16:16.183Z,5.00
2022-10-09T05:17:20.771Z,4.90
2022-10-09T05:18:24.742Z,4.90
2022-10-09T05:19:26.513Z,4.90
2022-10-09T05:20:29.526Z,4.90
2022-10-09T05:21:31.528Z,4.90
2022-10-09T05:22:33.284Z,4.90
2022-10-09T05:23:35.696Z,4.90
2022-10-09T05:24:37.395Z,4.90
2022-10-09T05:25:39.095Z,4.90
2022-10-09T05:26:40.832Z,4.90
2022-10-09T05:27:42.530Z,4.90
2022-10-09T05:28:44.933Z,4.90
2022-10-09T05:29:46.728Z,4.90
2022-10-09T05:30:48.594Z,4.90
2022-10-09T05:31:50.555Z,5.00
2022-10-09T05:32:52.385Z,5.00
2022-10-09T05:33:56.127Z,5.00
2022-10-09T05:34:57.850Z,5.00
2022-10-09T05:36:02.615Z,5.00
2022-10-09T05:37:04.374Z,5.00
2022-10-09T05:38:06.036Z,5.00
2022-10-09T05:39:07.714Z,4.90
2022-10-09T05:40:09.657Z,4.90
2022-10-09T05:41:14.141Z,4.90
2022-10-09T05:42:15.892Z,4.90
2022-10-09T05:43:17.899Z,4.90
2022-10-09T05:44:19.598Z,4.90
2022-10-09T05:45:21.377Z,4.90
2022-10-09T05:46:24.986Z,4.90
2022-10-09T05:47:26.679Z,4.90
2022-10-09T05:48:28.408Z,4.90
2022-10-09T05:49:30.115Z,4.80
2022-10-09T05:50:31.863Z,4.80
2022-10-09T05:51:36.411Z,4.80
2022-10-09T05:52:39.991Z,4.80
2022-10-09T05:53:43.140Z,4.80
2022-10-09T05:54:44.880Z,4.80
2022-10-09T05:55:46.543Z,4.80
2022-10-09T05:56:48.418Z,4.80
2022-10-09T05:57:50.655Z,4.80
2022-10-09T05:58:57.749Z,4.70
2022-10-09T05:59:59.427Z,4.80
2022-10-09T06:01:01.254Z,4.70
2022-10-09T06:02:04.287Z,4.80
2022-10-09T06:03:06.049Z,4.80
2022-10-09T06:04:12.361Z,4.70
2022-10-09T06:05:14.353Z,4.80
2022-10-09T06:06:16.539Z,4.80
2022-10-09T06:07:18.200Z,4.80
2022-10-09T06:08:19.935Z,4.80
2022-10-09T06:09:23.830Z,4.80
2022-10-09T06:10:29.012Z,4.80
2022-10-09T06:11:35.556Z,4.80
2022-10-09T06:12:37.289Z,4.80
2022-10-09T06:13:39.466Z,4.80
2022-10-09T06:14:41.140Z,4.80
2022-10-09T06:15:52.525Z,4.80
2022-10-09T06:16:54.344Z,4.90
2022-10-09T06:17:56.031Z,4.90
2022-10-09T06:18:58.365Z,4.90
2022-10-09T06:20:00.092Z,5.00
2022-10-09T06:21:02.685Z,5.00
2022-10-09T06:22:04.341Z,5.00
2022-10-09T06:23:05.994Z,5.00
2022-10-09T06:24:08.213Z,5.00
2022-10-09T06:25:10.118Z,5.00
2022-10-09T06:26:13.651Z,5.10
2022-10-09T06:27:15.723Z,5.10
2022-10-09T06:28:17.405Z,5.10
2022-10-09T06:29:19.222Z,5.10
2022-10-09T06:30:20.877Z,5.10
2022-10-09T06:31:27.792Z,5.20
2022-10-09T06:32:29.631Z,5.20
2022-10-09T06:33:32.597Z,5.20
2022-10-09T06:34:35.016Z,5.30
2022-10-09T06:35:36.751Z,5.30
2022-10-09T06:36:38.484Z,5.30
2022-10-09T06:37:40.175Z,5.40
2022-10-09T06:38:42.814Z,5.40
2022-10-09T06:39:44.504Z,5.50
2022-10-09T06:40:46.150Z,5.50
2022-10-09T06:41:47.871Z,5.60
2022-10-09T06:42:50.456Z,5.60
2022-10-09T06:43:55.148Z,5.60
2022-10-09T06:44:56.799Z,5.70
2022-10-09T06:46:04.171Z,5.70
2022-10-09T06:47:05.891Z,5.70
2022-10-09T06:48:07.550Z,5.70
2022-10-09T06:49:11.470Z,5.80
2022-10-09T06:50:13.257Z,5.90
2022-10-09T06:51:17.622Z,5.90
2022-10-09T06:52:19.310Z,6.00
2022-10-09T06:53:21.002Z,6.00
2022-10-09T06:54:22.672Z,6.10
2022-10-09T06:55:28.639Z,6.10
2022-10-09T06:56:32.078Z,6.20
2022-10-09T06:57:33.761Z,6.20
2022-10-09T06:58:35.979Z,6.30
2022-10-09T06:59:37.641Z,6.30
2022-10-09T07:00:39.299Z,6.40
2022-10-09T07:01:41.091Z,6.40
2022-10-09T07:02:44.245Z,6.40
2022-10-09T07:03:48.683Z,6.40
2022-10-09T07:04:50.335Z,6.50
2022-10-09T07:05:52.331Z,6.60
2022-10-09T07:06:54.059Z,6.60
2022-10-09T07:07:55.747Z,6.70
2022-10-09T07:09:03.479Z,6.70
2022-10-09T07:10:05.590Z,6.80
2022-10-09T07:11:16.881Z,6.80
2022-10-09T07:12:18.849Z,6.90
2022-10-09T07:13:20.508Z,7.00
2022-10-09T07:14:22.198Z,7.00
2022-10-09T07:15:23.862Z,7.00
2022-10-09T07:16:28.591Z,7.10
2022-10-09T07:17:30.393Z,7.10
2022-10-09T07:18:34.084Z,7.20
2022-10-09T07:19:35.845Z,7.20
2022-10-09T07:20:37.560Z,7.20
2022-10-09T07:21:42.270Z,7.30
2022-10-09T07:22:43.998Z,7.30
2022-10-09T07:23:46.300Z,7.30
2022-10-09T07:24:50.287Z,7.40
2022-10-09T07:25:51.971Z,7.40
2022-10-09T07:26:56.816Z,7.40
2022-10-09T07:27:58.514Z,7.40
2022-10-09T07:29:00.582Z,7.40
2022-10-09T07:30:02.326Z,7.50
2022-10-09T07:31:05.028Z,7.50
2022-10-09T07:32:10.310Z,7.50
2022-10-09T07:33:12.360Z,7.50
2022-10-09T07:34:14.143Z,7.60
2022-10-09T07:35:15.891Z,7.60
2022-10-09T07:36:18.324Z,7.70
2022-10-09T07:37:20.040Z,7.70
2022-10-09T07:38:22.522Z,7.80
2022-10-09T07:39:24.225Z,7.80
2022-10-09T07:40:26.054Z,7.90
2022-10-09T07:41:29.424Z,7.90
2022-10-09T07:42:31.088Z,8.00
2022-10-09T07:43:35.769Z,8.00
2022-10-09T07:44:37.501Z,8.10
2022-10-09T07:45:39.215Z,8.10
2022-10-09T07:46:40.975Z,8.10
2022-10-09T07:47:42.725Z,8.20
2022-10-09T07:48:44.647Z,8.20
2022-10-09T07:49:46.405Z,8.20
2022-10-09T07:50:48.112Z,8.30
2022-10-09T07:51:49.888Z,8.30
2022-10-09T07:52:52.102Z,8.40
2022-10-09T07:53:54.322Z,8.50
2022-10-09T07:54:56.105Z,8.50
2022-10-09T07:55:57.753Z,8.50
2022-10-09T07:56:59.423Z,8.60
2022-10-09T07:58:01.108Z,8.60
2022-10-09T07:59:06.316Z,8.60
2022-10-09T08:00:08.643Z,8.70
2022-10-09T08:01:10.805Z,8.70
2022-10-09T08:02:12.593Z,8.70
2022-10-09T08:03:14.315Z,8.70
2022-10-09T08:04:15.981Z,8.70
2022-10-09T08:05:17.653Z,8.70
2022-10-09T08:06:20.155Z,8.70
2022-10-09T08:07:21.860Z,8.80
2022-10-09T08:08:23.761Z,8.80
2022-10-09T08:09:25.726Z,8.80
2022-10-09T08:10:30.964Z,8.80
2022-10-09T08:11:33.124Z,8.80
2022-10-09T08:12:34.789Z,8.90
2022-10-09T08:13:36.504Z,9.00
2022-10-09T08:14:38.156Z,9.00
2022-10-09T08:15:41.495Z,9.00
2022-10-09T08:16:43.231Z,9.10
2022-10-09T08:17:44.906Z,9.10
2022-10-09T08:18:47.862Z,9.10
2022-10-09T08:19:49.597Z,9.20
2022-10-09T08:20:59.619Z,9.20
2022-10-09T08:22:03.596Z,9.30
2022-10-09T08:23:05.655Z,9.30
2022-10-09T08:24:07.385Z,9.30
2022-10-09T08:25:09.331Z,9.30
2022-10-09T08:26:16.693Z,9.30
2022-10-09T08:27:18.525Z,9.40
2022-10-09T08:28:20.499Z,9.40
2022-10-09T08:29:22.213Z,9.40
2022-10-09T08:30:24.214Z,9.40
2022-10-09T08:31:27.744Z,9.40
2022-10-09T08:32:29.562Z,9.50
2022-10-09T08:33:31.288Z,9.50
2022-10-09T08:34:32.979Z,9.50
2022-10-09T08:35:34.804Z,9.50
2022-10-09T08:36:36.557Z,9.60
2022-10-09T08:37:38.292Z,9.60
2022-10-09T08:38:48.288Z,9.60
2022-10-09T08:39:50.212Z,9.70
2022-10-09T08:41:17.612Z,9.70
2022-10-09T08:42:38.984Z,9.80
2022-10-09T08:43:45.325Z,9.80
2022-10-09T08:44:49.105Z,9.90
2022-10-09T08:45:52.159Z,10.00
2022-10-09T08:47:09.031Z,10.10
2022-10-09T08:48:20.700Z,10.10
2022-10-09T08:49:22.726Z,10.20
2022-10-09T08:50:49.554Z,10.30
2022-10-09T08:51:51.862Z,10.40
2022-10-09T08:53:03.370Z,10.40
2022-10-09T08:54:34.484Z,10.50
2022-10-09T08:55:43.451Z,10.50
2022-10-09T08:56:46.918Z,10.50
2022-10-09T08:57:52.097Z,10.60
2022-10-09T08:58:53.884Z,10.60
2022-10-09T08:59:56.639Z,10.60
2022-10-09T09:01:26.160Z,10.70
2022-10-09T09:02:35.598Z,10.70
2022-10-09T09:04:15.251Z,10.70
2022-10-09T09:05:35.535Z,10.80
2022-10-09T09:07:00.860Z,10.90
2022-10-09T09:08:05.311Z,10.90
2022-10-09T09:09:18.531Z,11.00
2022-10-09T09:10:33.203Z,11.00
2022-10-09T09:12:00.110Z,11.10
2022-10-09T09:13:27.308Z,11.20
2022-10-09T09:14:47.255Z,11.30
2022-10-09T09:16:15.500Z,11.40
2022-10-09T09:17:22.964Z,11.60
2022-10-09T09:18:52.266Z,11.70
2022-10-09T09:20:16.304Z,11.80
2022-10-09T09:21:32.360Z,11.90
2022-10-09T09:22:38.547Z,12.00
2022-10-09T09:23:44.353Z,12.00
2022-10-09T09:24:54.201Z,12.10
2022-10-09T09:25:56.437Z,12.20
2022-10-09T09:27:04.330Z,12.30
2022-10-09T09:28:34.090Z,12.30
2022-10-09T09:29:59.261Z,12.40
2022-10-09T09:31:12.992Z,12.40
2022-10-09T09:32:23.881Z,12.50
2022-10-09T09:33:41.013Z,12.50
2022-10-09T09:34:45.642Z,12.60
2022-10-09T09:36:09.070Z,12.60
2022-10-09T09:37:11.980Z,12.60
2022-10-09T09:38:15.090Z,12.70
2022-10-09T09:40:41.390Z,12.80
2022-10-09T09:41:45.033Z,12.80
2022-10-09T09:42:47.529Z,12.90
2022-10-09T09:43:49.413Z,12.90
2022-10-09T09:45:06.585Z,13.00
2022-10-09T09:46:18.292Z,13.00
2022-10-09T09:47:27.856Z,13.00
2022-10-09T09:48:37.036Z,13.10
2022-10-09T09:49:38.768Z,13.10
2022-10-09T09:50:50.589Z,13.10
2022-10-09T09:52:02.113Z,13.10
2022-10-09T09:53:25.440Z,13.20
2022-10-09T09:54:30.056Z,13.20
2022-10-09T09:55:33.483Z,13.20
2022-10-09T09:57:06.885Z,13.20
2022-10-09T09:58:14.781Z,13.30
2022-10-09T09:59:40.039Z,13.30
2022-10-09T10:00:41.812Z,13.40
2022-10-09T10:01:44.059Z,13.40
2022-10-09T10:02:46.273Z,13.40
2022-10-09T10:03:50.715Z,13.40
2022-10-09T10:05:09.211Z,13.50
2022-10-09T10:06:32.688Z,13.50
2022-10-09T10:07:38.756Z,13.50
2022-10-09T10:08:40.432Z,13.60
2022-10-09T10:09:42.094Z,13.60
2022-10-09T10:10:47.896Z,13.70
2022-10-09T10:11:59.895Z,13.70
2022-10-09T10:13:01.648Z,13.70
2022-10-09T10:14:08.777Z,13.80
2022-10-09T10:15:31.894Z,13.80
2022-10-09T10:16:36.634Z,13.80
2022-10-09T10:17:39.114Z,13.80
2022-10-09T10:18:43.315Z,13.90
2022-10-09T10:19:50.730Z,13.90
2022-10-09T10:21:07.072Z,13.90
2022-10-09T10:22:24.210Z,14.00
2022-10-09T10:23:32.926Z,14.00
2022-10-09T10:24:43.178Z,14.00
2022-10-09T10:25:44.878Z,14.10
2022-10-09T10:26:57.974Z,14.10
2022-10-09T10:28:24.913Z,14.10
2022-10-09T10:29:41.180Z,14.20
2022-10-09T10:30:43.778Z,14.20
2022-10-09T10:31:54.872Z,14.20
2022-10-09T10:33:05.514Z,14.20
2022-10-09T10:34:18.162Z,14.20
2022-10-09T10:35:35.934Z,14.20
2022-10-09T10:36:37.694Z,14.20
2022-10-09T10:37:47.723Z,14.20
2022-10-09T10:38:58.787Z,14.20
2022-10-09T10:40:27.755Z,14.20
2022-10-09T10:41:39.995Z,14.30
2022-10-09T10:43:03.553Z,14.30
2022-10-09T10:44:26.450Z,14.30
2022-10-09T10:45:39.080Z,14.30
2022-10-09T10:46:54.717Z,14.30
2022-10-09T10:47:58.375Z,14.30
2022-10-09T10:49:00.535Z,14.40
2022-10-09T10:50:02.426Z,14.40
2022-10-09T10:51:22.299Z,14.40
2022-10-09T10:52:30.143Z,14.50
2022-10-09T10:53:50.734Z,14.50
2022-10-09T10:55:16.053Z,14.50
2022-10-09T10:56:32.652Z,14.60
2022-10-09T10:57:50.606Z,14.60
2022-10-09T10:59:08.016Z,14.60
2022-10-09T11:00:11.443Z,14.70
2022-10-09T11:01:13.204Z,14.70
2022-10-09T11:02:32.625Z,14.70
2022-10-09T11:03:43.900Z,14.70
2022-10-09T11:05:20.164Z,14.80
2022-10-09T11:06:55.414Z,14.80
2022-10-09T11:08:00.347Z,14.80
2022-10-09T11:09:20.974Z,14.90
2022-10-09T11:10:59.428Z,14.90
2022-10-09T11:12:30.004Z,14.90
2022-10-09T11:13:58.425Z,14.90
2022-10-09T11:15:19.554Z,14.90
2022-10-09T11:16:49.310Z,14.90
2022-10-09T11:17:59.015Z,15.00
2022-10-09T11:19:06.581Z,15.00
2022-10-09T11:20:08.609Z,15.00
2022-10-09T11:21:20.495Z,15.00
2022-10-09T11:22:46.825Z,15.00
2022-10-09T11:24:26.940Z,15.00
2022-10-09T11:25:49.406Z,15.10
2022-10-09T11:27:18.687Z,15.10
2022-10-09T11:28:37.396Z,15.20
2022-10-09T11:29:47.822Z,15.20
2022-10-09T11:31:08.419Z,15.30
2022-10-09T11:32:38.675Z,15.30
2022-10-09T11:33:50.966Z,15.40
2022-10-09T11:35:02.119Z,15.60
2022-10-09T11:36:33.079Z,15.60
2022-10-09T11:37:39.316Z,15.80
2022-10-09T11:38:54.591Z,15.90
2022-10-09T11:39:56.985Z,16.00
2022-10-09T11:41:00.697Z,16.10
2022-10-09T11:42:03.472Z,16.10
2022-10-09T11:43:25.519Z,16.20
2022-10-09T11:44:45.966Z,16.40
2022-10-09T11:46:19.061Z,16.50
2022-10-09T11:47:34.221Z,16.60
2022-10-09T11:48:47.975Z,16.80
2022-10-09T11:50:10.889Z,16.90
2022-10-09T11:51:19.065Z,16.90
2022-10-09T11:53:02.556Z,17.10
2022-10-09T11:54:10.590Z,17.20
2022-10-09T11:55:32.448Z,17.30
2022-10-09T11:56:34.886Z,17.40
2022-10-09T11:57:36.596Z,17.40
2022-10-09T11:58:38.278Z,17.50
2022-10-09T11:59:43.201Z,17.50
2022-10-09T12:00:45.999Z,17.60
2022-10-09T12:01:48.227Z,17.60
2022-10-09T12:03:01.556Z,17.70
2022-10-09T12:04:08.139Z,17.70
2022-10-09T12:05:18.245Z,17.70
2022-10-09T12:06:22.330Z,17.60
2022-10-09T12:07:34.445Z,17.60
2022-10-09T12:08:38.317Z,17.50
2022-10-09T12:09:43.435Z,17.50
2022-10-09T12:10:54.982Z,17.40
2022-10-09T12:12:03.528Z,17.30
2022-10-09T12:13:08.307Z,17.20
2022-10-09T12:14:23.242Z,17.20
2022-10-09T12:15:35.597Z,17.10
2022-10-09T12:16:39.849Z,17.10
2022-10-09T12:17:49.787Z,17.00
2022-10-09T12:18:52.119Z,17.00
2022-10-09T12:20:00.896Z,17.00
2022-10-09T12:21:07.472Z,16.90
2022-10-09T12:22:33.502Z,16.90
2022-10-09T12:23:39.848Z,16.80
2022-10-09T12:24:55.707Z,16.80
2022-10-09T12:25:58.775Z,16.80
2022-10-09T12:27:03.262Z,16.70
2022-10-09T12:28:06.172Z,16.70
2022-10-09T12:29:19.242Z,16.70
2022-10-09T12:30:24.674Z,16.60
2022-10-09T12:31:30.903Z,16.60
2022-10-09T12:32:37.441Z,16.60
2022-10-09T12:33:46.073Z,16.60
2022-10-09T12:34:49.808Z,16.60
2022-10-09T12:36:18.033Z,16.50
2022-10-09T12:37:33.117Z,16.50
2022-10-09T12:38:34.892Z,16.50
2022-10-09T12:39:37.757Z,16.50
2022-10-09T12:40:46.684Z,16.50
2022-10-09T12:41:51.978Z,16.50
2022-10-09T12:42:55.690Z,16.50
2022-10-09T12:43:58.309Z,16.50
2022-10-09T12:45:00.079Z,16.50
2022-10-09T12:46:02.139Z,16.50
2022-10-09T12:47:13.051Z,16.50
2022-10-09T12:48:18.806Z,16.50
2022-10-09T12:49:24.108Z,16.50
2022-10-09T12:50:30.880Z,16.50
2022-10-09T12:51:33.446Z,16.50
2022-10-09T12:52:35.165Z,16.50
2022-10-09T12:53:50.009Z,16.50
2022-10-09T12:54:51.683Z,16.60
2022-10-09T12:56:00.442Z,16.50
2022-10-09T12:57:02.547Z,16.50
2022-10-09T12:58:39.441Z,16.50
2022-10-09T12:59:42.436Z,16.60
2022-10-09T13:00:47.397Z,16.60
2022-10-09T13:01:53.555Z,16.60
2022-10-09T13:02:55.869Z,16.60
2022-10-09T13:04:00.045Z,16.60
2022-10-09T13:05:02.314Z,16.70
2022-10-09T13:06:07.448Z,16.70
2022-10-09T13:07:21.015Z,16.70
2022-10-09T13:08:28.748Z,16.70
2022-10-09T13:09:37.188Z,16.80
2022-10-09T13:10:38.859Z,16.80
2022-10-09T13:11:51.410Z,16.90
2022-10-09T13:12:56.299Z,16.90
2022-10-09T13:13:58.249Z,17.00
2022-10-09T13:15:06.738Z,17.00
2022-10-09T13:16:10.657Z,17.10
2022-10-09T13:17:33.855Z,17.10
2022-10-09T13:18:36.944Z,17.20
2022-10-09T13:19:38.657Z,17.30
2022-10-09T13:20:40.441Z,17.30
2022-10-09T13:21:42.188Z,17.30
2022-10-09T13:22:59.241Z,17.30
2022-10-09T13:24:12.003Z,17.30
2022-10-09T13:25:13.727Z,17.30
2022-10-09T13:26:29.993Z,17.30
2022-10-09T13:27:35.164Z,17.30
2022-10-09T13:28:36.931Z,17.30
2022-10-09T13:29:38.981Z,17.30
2022-10-09T13:30:40.762Z,17.20
2022-10-09T13:31:45.909Z,17.20
2022-10-09T13:32:47.668Z,17.20
2022-10-09T13:33:49.886Z,17.20
2022-10-09T13:34:55.080Z,17.20
2022-10-09T13:35:56.810Z,17.20
2022-10-09T13:36:58.851Z,17.20
2022-10-09T13:38:00.609Z,17.20
2022-10-09T13:39:02.261Z,17.20
2022-10-09T13:40:05.859Z,17.20
2022-10-09T13:41:09.806Z,17.20
2022-10-09T13:42:16.002Z,17.20
2022-10-09T13:43:26.019Z,17.20
2022-10-09T13:44:27.869Z,17.20
2022-10-09T13:45:29.536Z,17.20
2022-10-09T13:46:31.246Z,17.10
2022-10-09T13:47:33.259Z,17.10
2022-10-09T13:48:35.154Z,17.10
2022-10-09T13:49:36.924Z,17.10
2022-10-09T13:50:38.798Z,17.00
2022-10-09T13:51:40.588Z,17.00
2022-10-09T13:52:42.738Z,17.00
2022-10-09T13:53:44.461Z,16.90
2022-10-09T13:54:46.206Z,16.90
2022-10-09T13:55:48.043Z,16.90
2022-10-09T13:56:49.787Z,16.90
2022-10-09T13:57:52.305Z,16.90
2022-10-09T13:58:54.342Z,16.80
2022-10-09T13:59:56.002Z,16.80
2022-10-09T14:00:58.324Z,16.90
2022-10-09T14:02:00.233Z,16.80
2022-10-09T14:03:01.936Z,16.80
2022-10-09T14:04:03.766Z,16.80
2022-10-09T14:05:05.884Z,16.80
2022-10-09T14:06:07.721Z,16.80
2022-10-09T14:07:09.432Z,16.80
2022-10-09T14:08:12.013Z,16.80
2022-10-09T14:09:13.736Z,16.80
2022-10-09T14:10:17.401Z,16.70
2022-10-09T14:11:22.144Z,16.70
2022-10-09T14:12:23.871Z,16.70
2022-10-09T14:13:25.611Z,16.70
2022-10-09T14:14:27.324Z,16.70
2022-10-09T14:15:29.008Z,16.70
2022-10-09T14:16:31.475Z,16.70
2022-10-09T14:17:33.127Z,16.70
2022-10-09T14:18:34.881Z,16.70
2022-10-09T14:19:36.611Z,16.70
2022-10-09T14:20:38.382Z,16.80
2022-10-09T14:21:40.277Z,16.80
2022-10-09T14:22:41.995Z,16.80
2022-10-09T14:23:43.765Z,16.80
2022-10-09T14:24:45.504Z,16.80
2022-10-09T14:25:47.236Z,16.90
2022-10-09T14:26:51.626Z,16.90
2022-10-09T14:27:53.906Z,16.90
2022-10-09T14:28:59.370Z,16.90
2022-10-09T14:30:01.184Z,16.90